sensor_id;sensor_type;location;lat;lon;timestamp;P1;durP1;ratioP1;P2;durP2;ratioP2
13847;SDS011;6994;49.752;6.094;2023-07-02T00:02:00;5.87;;;3.37;;
13847;SDS011;6994;49.752;6.094;2023-07-02T00:04:27;7.60;;;4.30;;
13847;SDS011;6994;49.752;6.094;2023-07-02T00:06:54;7.68;;;4.35;;
13847;SDS011;6994;49.752;6.094;2023-07-02T00:09:21;7.10;;;3.83;;
13847;SDS011;6994;49.752;6.094;2023-07-02T00:11:49;6.85;;;3.60;;
13847;SDS011;6994;49.752;6.094;2023-07-02T00:14:17;6.18;;;4.43;;
13847;SDS011;6994;49.752;6.094;2023-07-02T00:16:45;7.93;;;3.97;;
13847;SDS011;6994;49.752;6.094;2023-07-02T00:19:15;9.88;;;5.03;;
13847;SDS011;6994;49.752;6.094;2023-07-02T00:21:42;6.87;;;4.00;;
13847;SDS011;6994;49.752;6.094;2023-07-02T00:24:09;10.10;;;3.42;;
13847;SDS011;6994;49.752;6.094;2023-07-02T00:26:37;5.78;;;4.07;;
13847;SDS011;6994;49.752;6.094;2023-07-02T00:29:07;8.18;;;4.50;;
13847;SDS011;6994;49.752;6.094;2023-07-02T00:31:34;5.75;;;3.60;;
13847;SDS011;6994;49.752;6.094;2023-07-02T00:34:01;8.73;;;5.03;;
13847;SDS011;6994;49.752;6.094;2023-07-02T00:36:28;9.32;;;4.55;;
13847;SDS011;6994;49.752;6.094;2023-07-02T00:38:56;9.30;;;4.45;;
13847;SDS011;6994;49.752;6.094;2023-07-02T00:41:23;9.27;;;4.37;;
13847;SDS011;6994;49.752;6.094;2023-07-02T00:43:50;7.57;;;4.30;;
13847;SDS011;6994;49.752;6.094;2023-07-02T00:46:17;6.97;;;4.43;;
13847;SDS011;6994;49.752;6.094;2023-07-02T00:48:44;6.65;;;4.53;;
13847;SDS011;6994;49.752;6.094;2023-07-02T00:51:13;7.62;;;4.68;;
13847;SDS011;6994;49.752;6.094;2023-07-02T00:53:39;8.80;;;3.92;;
13847;SDS011;6994;49.752;6.094;2023-07-02T00:56:06;9.70;;;5.40;;
13847;SDS011;6994;49.752;6.094;2023-07-02T00:58:34;6.28;;;4.07;;
13847;SDS011;6994;49.752;6.094;2023-07-02T01:01:00;7.72;;;4.87;;
13847;SDS011;6994;49.752;6.094;2023-07-02T01:03:28;7.28;;;4.28;;
13847;SDS011;6994;49.752;6.094;2023-07-02T01:05:55;7.85;;;4.28;;
13847;SDS011;6994;49.752;6.094;2023-07-02T01:08:22;6.50;;;4.47;;
13847;SDS011;6994;49.752;6.094;2023-07-02T01:10:49;8.57;;;4.90;;
13847;SDS011;6994;49.752;6.094;2023-07-02T01:13:17;10.80;;;5.00;;
13847;SDS011;6994;49.752;6.094;2023-07-02T01:15:44;8.40;;;5.35;;
13847;SDS011;6994;49.752;6.094;2023-07-02T01:18:11;6.68;;;4.20;;
13847;SDS011;6994;49.752;6.094;2023-07-02T01:20:38;8.88;;;5.85;;
13847;SDS011;6994;49.752;6.094;2023-07-02T01:23:05;6.05;;;4.40;;
13847;SDS011;6994;49.752;6.094;2023-07-02T01:25:33;9.15;;;5.28;;
13847;SDS011;6994;49.752;6.094;2023-07-02T01:28:00;8.82;;;4.70;;
13847;SDS011;6994;49.752;6.094;2023-07-02T01:30:28;12.45;;;5.22;;
13847;SDS011;6994;49.752;6.094;2023-07-02T01:32:55;9.00;;;6.05;;
13847;SDS011;6994;49.752;6.094;2023-07-02T01:35:22;9.05;;;5.68;;
13847;SDS011;6994;49.752;6.094;2023-07-02T01:37:49;7.43;;;4.80;;
13847;SDS011;6994;49.752;6.094;2023-07-02T01:40:16;7.85;;;5.37;;
13847;SDS011;6994;49.752;6.094;2023-07-02T01:42:44;11.27;;;5.60;;
13847;SDS011;6994;49.752;6.094;2023-07-02T01:45:12;14.25;;;6.50;;
13847;SDS011;6994;49.752;6.094;2023-07-02T01:47:39;13.65;;;6.20;;
13847;SDS011;6994;49.752;6.094;2023-07-02T01:50:06;11.70;;;6.60;;
13847;SDS011;6994;49.752;6.094;2023-07-02T01:52:33;11.02;;;7.55;;
13847;SDS011;6994;49.752;6.094;2023-07-02T01:55:01;9.48;;;6.28;;
13847;SDS011;6994;49.752;6.094;2023-07-02T01:57:28;10.07;;;7.25;;
13847;SDS011;6994;49.752;6.094;2023-07-02T01:59:56;11.52;;;6.80;;
13847;SDS011;6994;49.752;6.094;2023-07-02T02:02:24;11.77;;;7.37;;
13847;SDS011;6994;49.752;6.094;2023-07-02T02:04:51;10.77;;;7.25;;
13847;SDS011;6994;49.752;6.094;2023-07-02T02:07:18;12.30;;;7.62;;
13847;SDS011;6994;49.752;6.094;2023-07-02T02:09:45;13.82;;;8.93;;
13847;SDS011;6994;49.752;6.094;2023-07-02T02:12:13;13.27;;;8.27;;
13847;SDS011;6994;49.752;6.094;2023-07-02T02:14:40;14.57;;;8.40;;
13847;SDS011;6994;49.752;6.094;2023-07-02T02:17:08;14.98;;;8.25;;
13847;SDS011;6994;49.752;6.094;2023-07-02T02:19:35;13.80;;;8.00;;
13847;SDS011;6994;49.752;6.094;2023-07-02T02:22:02;12.45;;;7.78;;
13847;SDS011;6994;49.752;6.094;2023-07-02T02:24:29;16.15;;;7.55;;
13847;SDS011;6994;49.752;6.094;2023-07-02T02:26:57;15.75;;;8.57;;
13847;SDS011;6994;49.752;6.094;2023-07-02T02:29:24;14.55;;;8.00;;
13847;SDS011;6994;49.752;6.094;2023-07-02T02:31:51;15.48;;;8.05;;
13847;SDS011;6994;49.752;6.094;2023-07-02T02:34:18;17.45;;;8.50;;
13847;SDS011;6994;49.752;6.094;2023-07-02T02:36:46;14.45;;;8.88;;
13847;SDS011;6994;49.752;6.094;2023-07-02T02:39:13;14.82;;;9.45;;
13847;SDS011;6994;49.752;6.094;2023-07-02T02:41:40;13.43;;;7.75;;
13847;SDS011;6994;49.752;6.094;2023-07-02T02:44:07;16.77;;;8.40;;
13847;SDS011;6994;49.752;6.094;2023-07-02T02:46:34;14.93;;;8.07;;
13847;SDS011;6994;49.752;6.094;2023-07-02T02:49:02;14.27;;;10.05;;
13847;SDS011;6994;49.752;6.094;2023-07-02T02:51:29;17.42;;;8.25;;
13847;SDS011;6994;49.752;6.094;2023-07-02T02:53:56;14.70;;;9.05;;
13847;SDS011;6994;49.752;6.094;2023-07-02T02:56:24;17.37;;;9.52;;
13847;SDS011;6994;49.752;6.094;2023-07-02T02:58:52;17.33;;;9.30;;
13847;SDS011;6994;49.752;6.094;2023-07-02T03:01:19;11.73;;;8.02;;
13847;SDS011;6994;49.752;6.094;2023-07-02T03:03:46;14.63;;;8.88;;
13847;SDS011;6994;49.752;6.094;2023-07-02T03:06:14;17.17;;;9.65;;
13847;SDS011;6994;49.752;6.094;2023-07-02T03:08:41;15.13;;;9.45;;
13847;SDS011;6994;49.752;6.094;2023-07-02T03:11:08;18.02;;;9.00;;
13847;SDS011;6994;49.752;6.094;2023-07-02T03:13:35;14.07;;;8.73;;
13847;SDS011;6994;49.752;6.094;2023-07-02T03:16:02;17.20;;;9.65;;
13847;SDS011;6994;49.752;6.094;2023-07-02T03:18:30;15.90;;;10.02;;
13847;SDS011;6994;49.752;6.094;2023-07-02T03:20:57;14.38;;;9.80;;
13847;SDS011;6994;49.752;6.094;2023-07-02T03:23:24;15.77;;;9.75;;
13847;SDS011;6994;49.752;6.094;2023-07-02T03:25:51;16.45;;;9.25;;
13847;SDS011;6994;49.752;6.094;2023-07-02T03:28:18;16.05;;;9.52;;
13847;SDS011;6994;49.752;6.094;2023-07-02T03:30:46;14.23;;;8.60;;
13847;SDS011;6994;49.752;6.094;2023-07-02T03:33:13;16.48;;;9.40;;
13847;SDS011;6994;49.752;6.094;2023-07-02T03:35:40;13.98;;;9.95;;
13847;SDS011;6994;49.752;6.094;2023-07-02T03:38:08;19.42;;;9.70;;
13847;SDS011;6994;49.752;6.094;2023-07-02T03:40:36;17.50;;;11.40;;
13847;SDS011;6994;49.752;6.094;2023-07-02T03:43:03;15.07;;;9.35;;
13847;SDS011;6994;49.752;6.094;2023-07-02T03:45:31;15.77;;;8.80;;
13847;SDS011;6994;49.752;6.094;2023-07-02T03:47:58;20.52;;;10.05;;
13847;SDS011;6994;49.752;6.094;2023-07-02T03:50:25;16.08;;;9.52;;
13847;SDS011;6994;49.752;6.094;2023-07-02T03:52:52;20.65;;;9.95;;
13847;SDS011;6994;49.752;6.094;2023-07-02T03:55:20;17.58;;;10.95;;
13847;SDS011;6994;49.752;6.094;2023-07-02T03:57:47;18.37;;;10.10;;
13847;SDS011;6994;49.752;6.094;2023-07-02T04:00:15;21.65;;;10.45;;
13847;SDS011;6994;49.752;6.094;2023-07-02T04:02:42;16.62;;;9.30;;
13847;SDS011;6994;49.752;6.094;2023-07-02T04:05:09;17.65;;;12.37;;
13847;SDS011;6994;49.752;6.094;2023-07-02T04:07:36;17.25;;;10.02;;
13847;SDS011;6994;49.752;6.094;2023-07-02T04:10:03;18.58;;;9.27;;
13847;SDS011;6994;49.752;6.094;2023-07-02T04:12:31;21.17;;;11.32;;
13847;SDS011;6994;49.752;6.094;2023-07-02T04:14:58;21.00;;;10.68;;
13847;SDS011;6994;49.752;6.094;2023-07-02T04:17:25;17.70;;;10.10;;
13847;SDS011;6994;49.752;6.094;2023-07-02T04:19:53;18.92;;;10.45;;
13847;SDS011;6994;49.752;6.094;2023-07-02T04:22:20;16.75;;;9.93;;
13847;SDS011;6994;49.752;6.094;2023-07-02T04:24:48;16.52;;;10.02;;
13847;SDS011;6994;49.752;6.094;2023-07-02T04:27:15;19.58;;;9.95;;
13847;SDS011;6994;49.752;6.094;2023-07-02T04:29:45;18.70;;;10.32;;
13847;SDS011;6994;49.752;6.094;2023-07-02T04:32:13;18.90;;;10.82;;
13847;SDS011;6994;49.752;6.094;2023-07-02T04:34:40;20.02;;;10.98;;
13847;SDS011;6994;49.752;6.094;2023-07-02T04:37:08;17.83;;;10.15;;
13847;SDS011;6994;49.752;6.094;2023-07-02T04:39:35;19.27;;;11.43;;
13847;SDS011;6994;49.752;6.094;2023-07-02T04:42:03;18.35;;;10.80;;
13847;SDS011;6994;49.752;6.094;2023-07-02T04:44:30;19.10;;;11.52;;
13847;SDS011;6994;49.752;6.094;2023-07-02T04:46:58;20.73;;;11.20;;
13847;SDS011;6994;49.752;6.094;2023-07-02T04:49:25;22.27;;;10.35;;
13847;SDS011;6994;49.752;6.094;2023-07-02T04:51:52;21.25;;;11.73;;
13847;SDS011;6994;49.752;6.094;2023-07-02T04:54:20;21.45;;;12.37;;
13847;SDS011;6994;49.752;6.094;2023-07-02T04:56:47;23.08;;;12.75;;
13847;SDS011;6994;49.752;6.094;2023-07-02T04:59:14;23.58;;;12.15;;
13847;SDS011;6994;49.752;6.094;2023-07-02T05:01:42;27.17;;;14.75;;
13847;SDS011;6994;49.752;6.094;2023-07-02T05:04:10;26.65;;;14.52;;
13847;SDS011;6994;49.752;6.094;2023-07-02T05:06:37;26.10;;;13.93;;
13847;SDS011;6994;49.752;6.094;2023-07-02T05:09:04;23.75;;;14.63;;
13847;SDS011;6994;49.752;6.094;2023-07-02T05:13:00;22.48;;;14.50;;
13847;SDS011;6994;49.752;6.094;2023-07-02T05:15:27;27.15;;;15.65;;
13847;SDS011;6994;49.752;6.094;2023-07-02T05:17:55;27.60;;;15.10;;
13847;SDS011;6994;49.752;6.094;2023-07-02T05:20:23;26.30;;;14.45;;
13847;SDS011;6994;49.752;6.094;2023-07-02T05:22:50;27.33;;;16.85;;
13847;SDS011;6994;49.752;6.094;2023-07-02T05:25:17;24.80;;;15.00;;
13847;SDS011;6994;49.752;6.094;2023-07-02T05:27:44;28.35;;;17.77;;
13847;SDS011;6994;49.752;6.094;2023-07-02T05:30:12;22.77;;;14.43;;
13847;SDS011;6994;49.752;6.094;2023-07-02T05:32:40;32.88;;;14.70;;
13847;SDS011;6994;49.752;6.094;2023-07-02T05:35:07;29.55;;;15.10;;
13847;SDS011;6994;49.752;6.094;2023-07-02T05:37:34;26.52;;;15.18;;
13847;SDS011;6994;49.752;6.094;2023-07-02T05:40:01;28.75;;;13.50;;
13847;SDS011;6994;49.752;6.094;2023-07-02T05:42:28;29.85;;;15.85;;
13847;SDS011;6994;49.752;6.094;2023-07-02T05:44:56;25.88;;;14.75;;
13847;SDS011;6994;49.752;6.094;2023-07-02T05:47:23;24.70;;;14.68;;
13847;SDS011;6994;49.752;6.094;2023-07-02T05:49:50;22.90;;;14.85;;
13847;SDS011;6994;49.752;6.094;2023-07-02T05:52:17;28.05;;;16.12;;
13847;SDS011;6994;49.752;6.094;2023-07-02T05:54:44;32.85;;;16.27;;
13847;SDS011;6994;49.752;6.094;2023-07-02T05:57:12;26.95;;;16.85;;
13847;SDS011;6994;49.752;6.094;2023-07-02T05:59:39;24.10;;;14.05;;
13847;SDS011;6994;49.752;6.094;2023-07-02T06:02:06;24.80;;;14.55;;
13847;SDS011;6994;49.752;6.094;2023-07-02T06:04:33;27.40;;;15.02;;
13847;SDS011;6994;49.752;6.094;2023-07-02T06:07:01;27.92;;;13.85;;
13847;SDS011;6994;49.752;6.094;2023-07-02T06:09:28;27.65;;;14.80;;
13847;SDS011;6994;49.752;6.094;2023-07-02T06:11:56;26.17;;;15.80;;
13847;SDS011;6994;49.752;6.094;2023-07-02T06:14:23;27.35;;;15.20;;
13847;SDS011;6994;49.752;6.094;2023-07-02T06:16:50;28.58;;;15.90;;
13847;SDS011;6994;49.752;6.094;2023-07-02T06:19:17;26.15;;;14.60;;
13847;SDS011;6994;49.752;6.094;2023-07-02T06:21:45;24.50;;;16.23;;
13847;SDS011;6994;49.752;6.094;2023-07-02T06:24:12;26.23;;;13.82;;
13847;SDS011;6994;49.752;6.094;2023-07-02T06:26:39;26.05;;;15.38;;
13847;SDS011;6994;49.752;6.094;2023-07-02T06:29:07;22.87;;;14.35;;
13847;SDS011;6994;49.752;6.094;2023-07-02T06:31:35;25.30;;;15.20;;
13847;SDS011;6994;49.752;6.094;2023-07-02T06:34:02;24.35;;;13.98;;
13847;SDS011;6994;49.752;6.094;2023-07-02T06:36:29;26.17;;;13.85;;
13847;SDS011;6994;49.752;6.094;2023-07-02T06:38:57;26.02;;;16.90;;
13847;SDS011;6994;49.752;6.094;2023-07-02T06:41:25;24.65;;;14.27;;
13847;SDS011;6994;49.752;6.094;2023-07-02T06:43:53;30.23;;;15.57;;
13847;SDS011;6994;49.752;6.094;2023-07-02T06:46:20;27.80;;;15.27;;
13847;SDS011;6994;49.752;6.094;2023-07-02T06:48:47;25.20;;;15.15;;
13847;SDS011;6994;49.752;6.094;2023-07-02T06:51:14;30.42;;;14.35;;
13847;SDS011;6994;49.752;6.094;2023-07-02T06:53:42;31.67;;;15.40;;
13847;SDS011;6994;49.752;6.094;2023-07-02T06:56:10;32.78;;;15.73;;
13847;SDS011;6994;49.752;6.094;2023-07-02T06:58:44;24.98;;;15.25;;
13847;SDS011;6994;49.752;6.094;2023-07-02T07:01:11;29.65;;;15.93;;
13847;SDS011;6994;49.752;6.094;2023-07-02T07:03:38;31.45;;;15.18;;
13847;SDS011;6994;49.752;6.094;2023-07-02T07:06:05;24.80;;;14.18;;
13847;SDS011;6994;49.752;6.094;2023-07-02T07:08:36;29.30;;;16.70;;
13847;SDS011;6994;49.752;6.094;2023-07-02T07:11:01;28.25;;;15.65;;
13847;SDS011;6994;49.752;6.094;2023-07-02T07:13:28;24.45;;;15.18;;
13847;SDS011;6994;49.752;6.094;2023-07-02T07:15:55;30.25;;;16.27;;
13847;SDS011;6994;49.752;6.094;2023-07-02T07:18:22;23.17;;;14.45;;
13847;SDS011;6994;49.752;6.094;2023-07-02T07:20:49;31.50;;;14.57;;
13847;SDS011;6994;49.752;6.094;2023-07-02T07:23:17;25.05;;;14.68;;
13847;SDS011;6994;49.752;6.094;2023-07-02T07:25:44;25.88;;;15.02;;
13847;SDS011;6994;49.752;6.094;2023-07-02T07:28:11;25.48;;;16.67;;
13847;SDS011;6994;49.752;6.094;2023-07-02T07:30:38;23.60;;;15.15;;
13847;SDS011;6994;49.752;6.094;2023-07-02T07:33:06;23.25;;;15.95;;
13847;SDS011;6994;49.752;6.094;2023-07-02T07:35:33;29.10;;;17.87;;
13847;SDS011;6994;49.752;6.094;2023-07-02T07:38:00;28.05;;;14.38;;
13847;SDS011;6994;49.752;6.094;2023-07-02T07:40:27;27.35;;;17.85;;
13847;SDS011;6994;49.752;6.094;2023-07-02T07:42:55;25.58;;;15.43;;
13847;SDS011;6994;49.752;6.094;2023-07-02T07:45:22;26.58;;;14.13;;
13847;SDS011;6994;49.752;6.094;2023-07-02T07:47:50;24.73;;;15.00;;
13847;SDS011;6994;49.752;6.094;2023-07-02T07:50:17;26.48;;;17.08;;
13847;SDS011;6994;49.752;6.094;2023-07-02T07:52:44;24.17;;;15.15;;
13847;SDS011;6994;49.752;6.094;2023-07-02T07:55:11;26.15;;;17.77;;
13847;SDS011;6994;49.752;6.094;2023-07-02T07:57:39;19.50;;;14.00;;
13847;SDS011;6994;49.752;6.094;2023-07-02T08:00:06;23.38;;;15.02;;
13847;SDS011;6994;49.752;6.094;2023-07-02T08:02:36;24.42;;;15.30;;
13847;SDS011;6994;49.752;6.094;2023-07-02T08:05:03;25.58;;;14.75;;
13847;SDS011;6994;49.752;6.094;2023-07-02T08:07:31;21.70;;;13.00;;
13847;SDS011;6994;49.752;6.094;2023-07-02T08:09:58;24.10;;;12.65;;
13847;SDS011;6994;49.752;6.094;2023-07-02T08:12:25;21.02;;;13.60;;
13847;SDS011;6994;49.752;6.094;2023-07-02T08:14:56;25.07;;;16.00;;
13847;SDS011;6994;49.752;6.094;2023-07-02T08:17:23;22.25;;;15.65;;
13847;SDS011;6994;49.752;6.094;2023-07-02T08:19:50;23.17;;;16.05;;
13847;SDS011;6994;49.752;6.094;2023-07-02T08:22:17;24.98;;;17.70;;
13847;SDS011;6994;49.752;6.094;2023-07-02T08:24:44;24.63;;;17.40;;
13847;SDS011;6994;49.752;6.094;2023-07-02T08:27:11;23.23;;;17.70;;
13847;SDS011;6994;49.752;6.094;2023-07-02T08:29:39;19.20;;;15.07;;
13847;SDS011;6994;49.752;6.094;2023-07-02T08:32:06;22.73;;;15.07;;
13847;SDS011;6994;49.752;6.094;2023-07-02T08:34:33;26.42;;;18.25;;
13847;SDS011;6994;49.752;6.094;2023-07-02T08:37:00;22.70;;;15.77;;
13847;SDS011;6994;49.752;6.094;2023-07-02T08:39:28;24.67;;;18.10;;
13847;SDS011;6994;49.752;6.094;2023-07-02T08:41:55;23.87;;;19.23;;
13847;SDS011;6994;49.752;6.094;2023-07-02T08:44:22;23.73;;;18.33;;
13847;SDS011;6994;49.752;6.094;2023-07-02T08:46:49;25.90;;;18.55;;
13847;SDS011;6994;49.752;6.094;2023-07-02T08:49:16;21.87;;;17.25;;
13847;SDS011;6994;49.752;6.094;2023-07-02T08:51:45;28.12;;;20.35;;
13847;SDS011;6994;49.752;6.094;2023-07-02T08:54:13;23.30;;;19.63;;
13847;SDS011;6994;49.752;6.094;2023-07-02T08:56:40;24.20;;;19.35;;
13847;SDS011;6994;49.752;6.094;2023-07-02T08:59:08;21.73;;;17.08;;
13847;SDS011;6994;49.752;6.094;2023-07-02T09:01:44;24.20;;;18.50;;
13847;SDS011;6994;49.752;6.094;2023-07-02T09:04:21;20.15;;;15.63;;
13847;SDS011;6994;49.752;6.094;2023-07-02T09:06:44;25.25;;;18.83;;
13847;SDS011;6994;49.752;6.094;2023-07-02T09:09:11;23.75;;;16.75;;
13847;SDS011;6994;49.752;6.094;2023-07-02T09:11:51;22.85;;;18.48;;
13847;SDS011;6994;49.752;6.094;2023-07-02T09:14:24;23.92;;;17.15;;
13847;SDS011;6994;49.752;6.094;2023-07-02T09:17:03;24.23;;;17.93;;
13847;SDS011;6994;49.752;6.094;2023-07-02T09:19:30;22.80;;;18.10;;
13847;SDS011;6994;49.752;6.094;2023-07-02T09:21:57;22.83;;;17.87;;
13847;SDS011;6994;49.752;6.094;2023-07-02T09:24:24;25.90;;;19.10;;
13847;SDS011;6994;49.752;6.094;2023-07-02T09:26:52;25.73;;;18.58;;
13847;SDS011;6994;49.752;6.094;2023-07-02T09:29:29;23.70;;;17.77;;
13847;SDS011;6994;49.752;6.094;2023-07-02T09:31:58;25.20;;;18.20;;
13847;SDS011;6994;49.752;6.094;2023-07-02T09:34:28;19.50;;;16.40;;
13847;SDS011;6994;49.752;6.094;2023-07-02T09:36:58;22.80;;;17.77;;
13847;SDS011;6994;49.752;6.094;2023-07-02T09:39:26;24.83;;;16.60;;
13847;SDS011;6994;49.752;6.094;2023-07-02T09:41:52;22.20;;;15.95;;
13847;SDS011;6994;49.752;6.094;2023-07-02T09:44:19;21.58;;;15.00;;
13847;SDS011;6994;49.752;6.094;2023-07-02T09:46:53;22.33;;;16.67;;
13847;SDS011;6994;49.752;6.094;2023-07-02T09:49:20;22.33;;;16.60;;
13847;SDS011;6994;49.752;6.094;2023-07-02T09:51:47;19.87;;;15.43;;
13847;SDS011;6994;49.752;6.094;2023-07-02T09:54:14;20.77;;;15.10;;
13847;SDS011;6994;49.752;6.094;2023-07-02T09:56:41;21.90;;;16.52;;
13847;SDS011;6994;49.752;6.094;2023-07-02T09:59:09;18.55;;;12.35;;
13847;SDS011;6994;49.752;6.094;2023-07-02T10:01:36;22.23;;;14.10;;
13847;SDS011;6994;49.752;6.094;2023-07-02T10:04:10;20.85;;;16.65;;
13847;SDS011;6994;49.752;6.094;2023-07-02T10:06:46;21.85;;;16.42;;
13847;SDS011;6994;49.752;6.094;2023-07-02T10:09:19;19.12;;;14.90;;
13847;SDS011;6994;49.752;6.094;2023-07-02T10:11:43;18.83;;;13.70;;
13847;SDS011;6994;49.752;6.094;2023-07-02T10:14:10;22.42;;;13.85;;
13847;SDS011;6994;49.752;6.094;2023-07-02T10:16:52;19.23;;;15.57;;
13847;SDS011;6994;49.752;6.094;2023-07-02T10:19:19;19.60;;;16.33;;
13847;SDS011;6994;49.752;6.094;2023-07-02T10:21:47;17.77;;;13.80;;
13847;SDS011;6994;49.752;6.094;2023-07-02T10:24:14;20.02;;;16.50;;
13847;SDS011;6994;49.752;6.094;2023-07-02T10:27:00;19.33;;;15.23;;
13847;SDS011;6994;49.752;6.094;2023-07-02T10:29:27;16.20;;;12.90;;
13847;SDS011;6994;49.752;6.094;2023-07-02T10:31:54;18.05;;;13.98;;
13847;SDS011;6994;49.752;6.094;2023-07-02T10:34:30;16.70;;;13.62;;
13847;SDS011;6994;49.752;6.094;2023-07-02T10:37:03;17.00;;;12.80;;
13847;SDS011;6994;49.752;6.094;2023-07-02T10:39:27;20.80;;;15.68;;
13847;SDS011;6994;49.752;6.094;2023-07-02T10:42:02;18.90;;;15.57;;
13847;SDS011;6994;49.752;6.094;2023-07-02T10:44:21;17.70;;;14.70;;
13847;SDS011;6994;49.752;6.094;2023-07-02T10:46:49;18.92;;;15.02;;
13847;SDS011;6994;49.752;6.094;2023-07-02T10:49:16;19.43;;;15.50;;
13847;SDS011;6994;49.752;6.094;2023-07-02T10:51:43;18.33;;;14.57;;
13847;SDS011;6994;49.752;6.094;2023-07-02T10:54:10;15.52;;;13.60;;
13847;SDS011;6994;49.752;6.094;2023-07-02T10:56:37;17.52;;;14.55;;
13847;SDS011;6994;49.752;6.094;2023-07-02T10:59:05;17.67;;;14.75;;
13847;SDS011;6994;49.752;6.094;2023-07-02T11:01:32;19.92;;;13.90;;
13847;SDS011;6994;49.752;6.094;2023-07-02T11:03:59;14.90;;;11.85;;
13847;SDS011;6994;49.752;6.094;2023-07-02T11:06:27;19.45;;;15.13;;
13847;SDS011;6994;49.752;6.094;2023-07-02T11:08:53;17.30;;;14.87;;
13847;SDS011;6994;49.752;6.094;2023-07-02T11:11:21;18.23;;;16.30;;
13847;SDS011;6994;49.752;6.094;2023-07-02T11:13:48;17.30;;;15.45;;
13847;SDS011;6994;49.752;6.094;2023-07-02T11:16:27;17.70;;;15.90;;
13847;SDS011;6994;49.752;6.094;2023-07-02T11:18:54;18.02;;;15.45;;
13847;SDS011;6994;49.752;6.094;2023-07-02T11:21:20;17.50;;;15.70;;
13847;SDS011;6994;49.752;6.094;2023-07-02T11:23:48;17.90;;;15.02;;
13847;SDS011;6994;49.752;6.094;2023-07-02T11:26:15;17.58;;;15.70;;
13847;SDS011;6994;49.752;6.094;2023-07-02T11:28:49;18.48;;;14.38;;
13847;SDS011;6994;49.752;6.094;2023-07-02T11:31:23;17.62;;;14.52;;
13847;SDS011;6994;49.752;6.094;2023-07-02T11:33:43;18.05;;;15.07;;
13847;SDS011;6994;49.752;6.094;2023-07-02T11:36:19;14.18;;;12.55;;
13847;SDS011;6994;49.752;6.094;2023-07-02T11:38:37;16.80;;;13.98;;
13847;SDS011;6994;49.752;6.094;2023-07-02T11:43:32;17.92;;;16.00;;
13847;SDS011;6994;49.752;6.094;2023-07-02T11:45:59;17.62;;;15.82;;
13847;SDS011;6994;49.752;6.094;2023-07-02T11:48:26;15.50;;;13.90;;
13847;SDS011;6994;49.752;6.094;2023-07-02T11:50:53;17.10;;;14.70;;
13847;SDS011;6994;49.752;6.094;2023-07-02T11:53:21;17.95;;;14.70;;
13847;SDS011;6994;49.752;6.094;2023-07-02T11:55:48;16.43;;;14.37;;
13847;SDS011;6994;49.752;6.094;2023-07-02T11:58:15;15.27;;;13.68;;
13847;SDS011;6994;49.752;6.094;2023-07-02T12:00:42;16.35;;;14.38;;
13847;SDS011;6994;49.752;6.094;2023-07-02T12:03:10;17.63;;;15.03;;
13847;SDS011;6994;49.752;6.094;2023-07-02T12:05:37;17.87;;;14.45;;
13847;SDS011;6994;49.752;6.094;2023-07-02T12:08:04;16.98;;;15.07;;
13847;SDS011;6994;49.752;6.094;2023-07-02T12:10:31;18.25;;;15.88;;
13847;SDS011;6994;49.752;6.094;2023-07-02T12:12:58;15.23;;;13.40;;
13847;SDS011;6994;49.752;6.094;2023-07-02T12:15:26;17.27;;;14.90;;
13847;SDS011;6994;49.752;6.094;2023-07-02T12:17:53;19.60;;;14.53;;
13847;SDS011;6994;49.752;6.094;2023-07-02T12:20:20;14.95;;;13.35;;
13847;SDS011;6994;49.752;6.094;2023-07-02T12:22:47;17.90;;;14.55;;
13847;SDS011;6994;49.752;6.094;2023-07-02T12:25:14;17.20;;;13.27;;
13847;SDS011;6994;49.752;6.094;2023-07-02T12:27:42;16.95;;;14.35;;
13847;SDS011;6994;49.752;6.094;2023-07-02T12:30:10;17.67;;;15.07;;
13847;SDS011;6994;49.752;6.094;2023-07-02T12:32:38;15.37;;;13.77;;
13847;SDS011;6994;49.752;6.094;2023-07-02T12:35:05;15.43;;;13.77;;
13847;SDS011;6994;49.752;6.094;2023-07-02T12:37:32;13.43;;;12.00;;
13847;SDS011;6994;49.752;6.094;2023-07-02T12:39:59;14.87;;;13.38;;
13847;SDS011;6994;49.752;6.094;2023-07-02T12:42:26;15.77;;;14.25;;
13847;SDS011;6994;49.752;6.094;2023-07-02T12:44:54;15.23;;;13.62;;
13847;SDS011;6994;49.752;6.094;2023-07-02T12:47:21;14.35;;;12.85;;
13847;SDS011;6994;49.752;6.094;2023-07-02T12:49:48;15.73;;;14.23;;
13847;SDS011;6994;49.752;6.094;2023-07-02T12:52:15;16.23;;;14.57;;
13847;SDS011;6994;49.752;6.094;2023-07-02T12:54:42;16.03;;;14.53;;
13847;SDS011;6994;49.752;6.094;2023-07-02T12:57:10;17.55;;;15.80;;
13847;SDS011;6994;49.752;6.094;2023-07-02T12:59:37;17.27;;;15.60;;
13847;SDS011;6994;49.752;6.094;2023-07-02T13:02:04;16.87;;;15.13;;
13847;SDS011;6994;49.752;6.094;2023-07-02T13:04:31;17.13;;;15.20;;
13847;SDS011;6994;49.752;6.094;2023-07-02T13:06:59;16.60;;;15.00;;
13847;SDS011;6994;49.752;6.094;2023-07-02T13:09:26;16.90;;;15.13;;
13847;SDS011;6994;49.752;6.094;2023-07-02T13:11:53;18.25;;;15.23;;
13847;SDS011;6994;49.752;6.094;2023-07-02T13:14:20;16.58;;;14.90;;
13847;SDS011;6994;49.752;6.094;2023-07-02T13:16:47;15.65;;;14.07;;
13847;SDS011;6994;49.752;6.094;2023-07-02T13:19:15;16.85;;;15.05;;
13847;SDS011;6994;49.752;6.094;2023-07-02T13:21:42;14.87;;;13.47;;
13847;SDS011;6994;49.752;6.094;2023-07-02T13:24:10;16.40;;;14.85;;
13847;SDS011;6994;49.752;6.094;2023-07-02T13:26:36;16.52;;;14.87;;
13847;SDS011;6994;49.752;6.094;2023-07-02T13:29:04;18.10;;;16.35;;
13847;SDS011;6994;49.752;6.094;2023-07-02T13:31:31;16.75;;;15.02;;
13847;SDS011;6994;49.752;6.094;2023-07-02T13:33:58;17.55;;;15.95;;
13847;SDS011;6994;49.752;6.094;2023-07-02T13:36:25;17.80;;;14.85;;
13847;SDS011;6994;49.752;6.094;2023-07-02T13:38:52;18.00;;;16.30;;
13847;SDS011;6994;49.752;6.094;2023-07-02T13:41:20;18.20;;;16.30;;
13847;SDS011;6994;49.752;6.094;2023-07-02T13:43:47;18.15;;;16.25;;
13847;SDS011;6994;49.752;6.094;2023-07-02T13:46:14;17.60;;;15.88;;
13847;SDS011;6994;49.752;6.094;2023-07-02T13:48:42;17.33;;;15.50;;
13847;SDS011;6994;49.752;6.094;2023-07-02T13:51:08;19.37;;;17.37;;
13847;SDS011;6994;49.752;6.094;2023-07-02T13:53:36;18.30;;;16.50;;
13847;SDS011;6994;49.752;6.094;2023-07-02T13:56:03;18.90;;;16.90;;
13847;SDS011;6994;49.752;6.094;2023-07-02T13:58:45;18.37;;;16.47;;
13847;SDS011;6994;49.752;6.094;2023-07-02T14:01:12;17.90;;;16.07;;
13847;SDS011;6994;49.752;6.094;2023-07-02T14:06:10;17.62;;;15.90;;
13847;SDS011;6994;49.752;6.094;2023-07-02T14:08:37;17.08;;;15.38;;
13847;SDS011;6994;49.752;6.094;2023-07-02T14:11:04;16.58;;;14.98;;
13847;SDS011;6994;49.752;6.094;2023-07-02T14:13:31;17.60;;;15.80;;
13847;SDS011;6994;49.752;6.094;2023-07-02T14:15:59;17.20;;;15.50;;
13847;SDS011;6994;49.752;6.094;2023-07-02T14:18:26;18.33;;;16.63;;
13847;SDS011;6994;49.752;6.094;2023-07-02T14:20:53;17.73;;;15.93;;
13847;SDS011;6994;49.752;6.094;2023-07-02T14:23:20;17.73;;;16.02;;
13847;SDS011;6994;49.752;6.094;2023-07-02T14:25:47;18.40;;;16.50;;
13847;SDS011;6994;49.752;6.094;2023-07-02T14:28:14;17.83;;;16.03;;
13847;SDS011;6994;49.752;6.094;2023-07-02T14:30:42;19.27;;;16.48;;
13847;SDS011;6994;49.752;6.094;2023-07-02T14:33:09;15.63;;;13.95;;
13847;SDS011;6994;49.752;6.094;2023-07-02T14:35:36;16.80;;;15.07;;
13847;SDS011;6994;49.752;6.094;2023-07-02T14:38:03;16.97;;;15.17;;
13847;SDS011;6994;49.752;6.094;2023-07-02T14:40:31;15.88;;;14.30;;
13847;SDS011;6994;49.752;6.094;2023-07-02T14:42:58;16.33;;;13.70;;
13847;SDS011;6994;49.752;6.094;2023-07-02T14:45:25;17.62;;;15.10;;
13847;SDS011;6994;49.752;6.094;2023-07-02T14:47:52;17.20;;;15.50;;